sensor_id;sensor_type;location;lat;lon;timestamp;temperature;humidity
52615;DHT22;38508;53.158;6.614;2023-01-23T00:01:11;5.80;99.90
52615;DHT22;38508;53.158;6.614;2023-01-23T00:03:37;5.80;99.90
52615;DHT22;38508;53.158;6.614;2023-01-23T00:06:06;5.70;99.90
52615;DHT22;38508;53.158;6.614;2023-01-23T00:08:33;5.70;99.90
52615;DHT22;38508;53.158;6.614;2023-01-23T00:10:59;5.70;99.90
52615;DHT22;38508;53.158;6.614;2023-01-23T00:13:25;5.70;99.90
52615;DHT22;38508;53.158;6.614;2023-01-23T00:15:50;5.60;99.90
52615;DHT22;38508;53.158;6.614;2023-01-23T00:18:19;5.70;99.90
52615;DHT22;38508;53.158;6.614;2023-01-23T00:20:45;5.70;99.90
52615;DHT22;38508;53.158;6.614;2023-01-23T00:23:10;5.70;99.90
52615;DHT22;38508;53.158;6.614;2023-01-23T00:25:37;5.80;99.90
52615;DHT22;38508;53.158;6.614;2023-01-23T00:28:03;5.80;99.90
52615;DHT22;38508;53.158;6.614;2023-01-23T00:30:28;5.80;99.90
52615;DHT22;38508;53.158;6.614;2023-01-23T00:32:54;5.70;99.90
52615;DHT22;38508;53.158;6.614;2023-01-23T00:35:20;5.80;99.90
52615;DHT22;38508;53.158;6.614;2023-01-23T00:37:46;5.80;99.90
52615;DHT22;38508;53.158;6.614;2023-01-23T00:40:12;5.80;99.90
52615;DHT22;38508;53.158;6.614;2023-01-23T00:42:38;5.80;99.90
52615;DHT22;38508;53.158;6.614;2023-01-23T00:45:04;5.70;99.90
52615;DHT22;38508;53.158;6.614;2023-01-23T00:47:30;5.70;99.90
52615;DHT22;38508;53.158;6.614;2023-01-23T00:49:55;5.80;99.90
52615;DHT22;38508;53.158;6.614;2023-01-23T00:52:24;5.80;99.90
52615;DHT22;38508;53.158;6.614;2023-01-23T00:54:50;5.80;99.90
52615;DHT22;38508;53.158;6.614;2023-01-23T00:57:16;5.80;99.90
52615;DHT22;38508;53.158;6.614;2023-01-23T00:59:42;5.80;99.90
52615;DHT22;38508;53.158;6.614;2023-01-23T01:02:07;5.70;99.90
52615;DHT22;38508;53.158;6.614;2023-01-23T01:04:33;5.80;99.90
52615;DHT22;38508;53.158;6.614;2023-01-23T01:06:58;5.70;99.90
52615;DHT22;38508;53.158;6.614;2023-01-23T01:09:24;5.70;99.90
52615;DHT22;38508;53.158;6.614;2023-01-23T01:11:50;5.70;99.90
52615;DHT22;38508;53.158;6.614;2023-01-23T01:14:16;5.60;99.90
52615;DHT22;38508;53.158;6.614;2023-01-23T01:16:42;5.70;99.90
52615;DHT22;38508;53.158;6.614;2023-01-23T01:19:11;5.70;99.90
52615;DHT22;38508;53.158;6.614;2023-01-23T01:21:36;5.70;99.90
52615;DHT22;38508;53.158;6.614;2023-01-23T01:24:03;5.70;99.90
52615;DHT22;38508;53.158;6.614;2023-01-23T01:26:29;5.70;99.90
52615;DHT22;38508;53.158;6.614;2023-01-23T01:28:55;5.60;99.90
52615;DHT22;38508;53.158;6.614;2023-01-23T01:31:21;5.60;99.90
52615;DHT22;38508;53.158;6.614;2023-01-23T01:33:46;5.70;99.90
52615;DHT22;38508;53.158;6.614;2023-01-23T01:36:15;5.60;99.90
52615;DHT22;38508;53.158;6.614;2023-01-23T01:38:41;5.60;99.90
52615;DHT22;38508;53.158;6.614;2023-01-23T01:41:07;5.60;99.90
52615;DHT22;38508;53.158;6.614;2023-01-23T01:43:34;5.70;99.90
52615;DHT22;38508;53.158;6.614;2023-01-23T01:46:24;5.70;99.90
52615;DHT22;38508;53.158;6.614;2023-01-23T01:52:02;5.70;99.90
52615;DHT22;38508;53.158;6.614;2023-01-23T01:54:33;5.60;99.90
52615;DHT22;38508;53.158;6.614;2023-01-23T01:57:13;5.60;99.90
52615;DHT22;38508;53.158;6.614;2023-01-23T01:59:46;5.70;99.90
52615;DHT22;38508;53.158;6.614;2023-01-23T02:02:18;5.70;99.90
52615;DHT22;38508;53.158;6.614;2023-01-23T02:04:47;5.80;99.90
52615;DHT22;38508;53.158;6.614;2023-01-23T02:07:36;5.80;99.90
52615;DHT22;38508;53.158;6.614;2023-01-23T02:10:05;5.80;99.90
52615;DHT22;38508;53.158;6.614;2023-01-23T02:12:32;5.80;99.90
52615;DHT22;38508;53.158;6.614;2023-01-23T02:15:01;5.80;99.90
52615;DHT22;38508;53.158;6.614;2023-01-23T02:17:28;5.80;99.90
52615;DHT22;38508;53.158;6.614;2023-01-23T02:20:12;5.80;99.90
52615;DHT22;38508;53.158;6.614;2023-01-23T02:22:50;5.80;99.90
52615;DHT22;38508;53.158;6.614;2023-01-23T02:28:08;5.80;99.90
52615;DHT22;38508;53.158;6.614;2023-01-23T02:30:39;5.80;99.90
52615;DHT22;38508;53.158;6.614;2023-01-23T02:35:55;5.80;99.90
52615;DHT22;38508;53.158;6.614;2023-01-23T02:38:26;5.80;99.90
52615;DHT22;38508;53.158;6.614;2023-01-23T02:40:54;5.80;99.90
52615;DHT22;38508;53.158;6.614;2023-01-23T02:43:24;5.70;99.90
52615;DHT22;38508;53.158;6.614;2023-01-23T02:45:52;5.80;99.90
52615;DHT22;38508;53.158;6.614;2023-01-23T02:48:18;5.60;99.90
52615;DHT22;38508;53.158;6.614;2023-01-23T02:50:44;5.70;99.90
52615;DHT22;38508;53.158;6.614;2023-01-23T02:53:11;5.80;99.90
52615;DHT22;38508;53.158;6.614;2023-01-23T02:55:37;5.80;99.90
52615;DHT22;38508;53.158;6.614;2023-01-23T02:58:06;5.80;99.90
52615;DHT22;38508;53.158;6.614;2023-01-23T03:00:51;5.80;99.90
52615;DHT22;38508;53.158;6.614;2023-01-23T03:03:16;5.70;99.90
52615;DHT22;38508;53.158;6.614;2023-01-23T03:05:43;5.80;99.90
52615;DHT22;38508;53.158;6.614;2023-01-23T03:08:09;5.70;99.90
52615;DHT22;38508;53.158;6.614;2023-01-23T03:10:34;5.80;99.90
52615;DHT22;38508;53.158;6.614;2023-01-23T03:13:00;5.80;99.90
52615;DHT22;38508;53.158;6.614;2023-01-23T03:15:32;5.80;99.90
52615;DHT22;38508;53.158;6.614;2023-01-23T03:17:58;5.90;99.90
52615;DHT22;38508;53.158;6.614;2023-01-23T03:20:24;5.90;99.90
52615;DHT22;38508;53.158;6.614;2023-01-23T03:22:52;5.90;99.90
52615;DHT22;38508;53.158;6.614;2023-01-23T03:25:17;5.80;99.90
52615;DHT22;38508;53.158;6.614;2023-01-23T03:27:43;5.80;99.90
52615;DHT22;38508;53.158;6.614;2023-01-23T03:30:13;5.90;99.90
52615;DHT22;38508;53.158;6.614;2023-01-23T03:32:41;5.90;99.90
52615;DHT22;38508;53.158;6.614;2023-01-23T03:35:09;5.90;99.90
52615;DHT22;38508;53.158;6.614;2023-01-23T03:37:35;5.90;99.90
52615;DHT22;38508;53.158;6.614;2023-01-23T03:40:02;5.90;99.90
52615;DHT22;38508;53.158;6.614;2023-01-23T03:42:46;5.90;99.90
52615;DHT22;38508;53.158;6.614;2023-01-23T03:45:12;5.90;99.90
52615;DHT22;38508;53.158;6.614;2023-01-23T03:47:38;5.90;99.90
52615;DHT22;38508;53.158;6.614;2023-01-23T03:50:04;5.90;99.90
52615;DHT22;38508;53.158;6.614;2023-01-23T03:52:30;5.80;99.90
52615;DHT22;38508;53.158;6.614;2023-01-23T03:54:56;5.80;99.90
52615;DHT22;38508;53.158;6.614;2023-01-23T03:57:22;5.70;99.90
52615;DHT22;38508;53.158;6.614;2023-01-23T03:59:47;5.60;99.90
52615;DHT22;38508;53.158;6.614;2023-01-23T04:02:13;5.60;99.90
52615;DHT22;38508;53.158;6.614;2023-01-23T04:04:39;5.60;99.90
52615;DHT22;38508;53.158;6.614;2023-01-23T04:07:05;5.60;99.90
52615;DHT22;38508;53.158;6.614;2023-01-23T04:09:31;5.70;99.90
52615;DHT22;38508;53.158;6.614;2023-01-23T04:11:57;5.80;99.90
52615;DHT22;38508;53.158;6.614;2023-01-23T04:14:25;5.80;99.90
52615;DHT22;38508;53.158;6.614;2023-01-23T04:16:51;5.80;99.90
52615;DHT22;38508;53.158;6.614;2023-01-23T04:19:18;5.80;99.90
52615;DHT22;38508;53.158;6.614;2023-01-23T04:21:47;5.90;99.90
52615;DHT22;38508;53.158;6.614;2023-01-23T04:24:14;5.80;99.90
52615;DHT22;38508;53.158;6.614;2023-01-23T04:26:40;5.80;99.90
52615;DHT22;38508;53.158;6.614;2023-01-23T04:29:06;5.70;99.90
52615;DHT22;38508;53.158;6.614;2023-01-23T04:31:32;5.70;99.90
52615;DHT22;38508;53.158;6.614;2023-01-23T04:33:57;5.80;99.90
52615;DHT22;38508;53.158;6.614;2023-01-23T04:36:23;5.70;99.90
52615;DHT22;38508;53.158;6.614;2023-01-23T04:38:49;5.70;99.90
52615;DHT22;38508;53.158;6.614;2023-01-23T04:41:20;5.70;99.90
52615;DHT22;38508;53.158;6.614;2023-01-23T04:43:46;5.70;99.90
52615;DHT22;38508;53.158;6.614;2023-01-23T04:46:11;5.70;99.90
52615;DHT22;38508;53.158;6.614;2023-01-23T04:48:37;5.70;99.90
52615;DHT22;38508;53.158;6.614;2023-01-23T04:51:03;5.70;99.90
52615;DHT22;38508;53.158;6.614;2023-01-23T04:53:28;5.80;99.90
52615;DHT22;38508;53.158;6.614;2023-01-23T04:55:54;5.80;99.90
52615;DHT22;38508;53.158;6.614;2023-01-23T04:58:20;5.80;99.90
52615;DHT22;38508;53.158;6.614;2023-01-23T05:00:46;5.90;99.90
52615;DHT22;38508;53.158;6.614;2023-01-23T05:03:12;5.80;99.90
52615;DHT22;38508;53.158;6.614;2023-01-23T05:05:38;5.90;99.90
52615;DHT22;38508;53.158;6.614;2023-01-23T05:08:03;5.80;99.90
52615;DHT22;38508;53.158;6.614;2023-01-23T05:10:29;5.80;99.90
52615;DHT22;38508;53.158;6.614;2023-01-23T05:12:55;5.80;99.90
52615;DHT22;38508;53.158;6.614;2023-01-23T05:15:20;5.70;99.90
52615;DHT22;38508;53.158;6.614;2023-01-23T05:17:47;5.60;99.90
52615;DHT22;38508;53.158;6.614;2023-01-23T05:20:13;5.60;99.90
52615;DHT22;38508;53.158;6.614;2023-01-23T05:22:39;5.60;99.90
52615;DHT22;38508;53.158;6.614;2023-01-23T05:25:18;5.60;99.90
52615;DHT22;38508;53.158;6.614;2023-01-23T05:27:44;5.60;99.90
52615;DHT22;38508;53.158;6.614;2023-01-23T05:30:10;5.70;99.90
52615;DHT22;38508;53.158;6.614;2023-01-23T05:32:35;5.70;99.90
52615;DHT22;38508;53.158;6.614;2023-01-23T05:35:01;5.70;99.90
52615;DHT22;38508;53.158;6.614;2023-01-23T05:37:27;5.70;99.90
52615;DHT22;38508;53.158;6.614;2023-01-23T05:39:52;5.70;99.90
52615;DHT22;38508;53.158;6.614;2023-01-23T05:42:18;5.70;99.90
52615;DHT22;38508;53.158;6.614;2023-01-23T05:44:44;5.50;99.90
52615;DHT22;38508;53.158;6.614;2023-01-23T05:47:09;5.50;99.90
52615;DHT22;38508;53.158;6.614;2023-01-23T05:49:35;5.50;99.90
52615;DHT22;38508;53.158;6.614;2023-01-23T05:52:00;5.50;99.90
52615;DHT22;38508;53.158;6.614;2023-01-23T05:54:26;5.40;99.90
52615;DHT22;38508;53.158;6.614;2023-01-23T05:56:52;5.40;99.90
52615;DHT22;38508;53.158;6.614;2023-01-23T05:59:17;5.40;99.90
52615;DHT22;38508;53.158;6.614;2023-01-23T06:01:43;5.30;99.90
52615;DHT22;38508;53.158;6.614;2023-01-23T06:04:09;5.40;99.90
52615;DHT22;38508;53.158;6.614;2023-01-23T06:06:34;5.30;99.90
52615;DHT22;38508;53.158;6.614;2023-01-23T06:09:00;5.30;99.90
52615;DHT22;38508;53.158;6.614;2023-01-23T06:11:26;5.40;99.90
52615;DHT22;38508;53.158;6.614;2023-01-23T06:13:51;5.50;99.90
52615;DHT22;38508;53.158;6.614;2023-01-23T06:16:17;5.50;99.90
52615;DHT22;38508;53.158;6.614;2023-01-23T06:18:42;5.50;99.90
52615;DHT22;38508;53.158;6.614;2023-01-23T06:21:08;5.60;99.90
52615;DHT22;38508;53.158;6.614;2023-01-23T06:23:34;5.60;99.90
52615;DHT22;38508;53.158;6.614;2023-01-23T06:26:01;5.70;99.90
52615;DHT22;38508;53.158;6.614;2023-01-23T06:28:27;5.70;99.90
52615;DHT22;38508;53.158;6.614;2023-01-23T06:30:52;5.60;99.90
52615;DHT22;38508;53.158;6.614;2023-01-23T06:33:18;5.60;99.90
52615;DHT22;38508;53.158;6.614;2023-01-23T06:35:44;5.60;99.90
52615;DHT22;38508;53.158;6.614;2023-01-23T06:38:10;5.50;99.90
52615;DHT22;38508;53.158;6.614;2023-01-23T06:40:35;5.40;99.90
52615;DHT22;38508;53.158;6.614;2023-01-23T06:43:01;5.40;99.90
52615;DHT22;38508;53.158;6.614;2023-01-23T06:45:27;5.50;99.90
52615;DHT22;38508;53.158;6.614;2023-01-23T06:47:52;5.50;99.90
52615;DHT22;38508;53.158;6.614;2023-01-23T06:50:18;5.50;99.90
52615;DHT22;38508;53.158;6.614;2023-01-23T06:52:44;5.50;99.90
52615;DHT22;38508;53.158;6.614;2023-01-23T06:55:09;5.50;99.90
52615;DHT22;38508;53.158;6.614;2023-01-23T06:57:35;5.40;99.90
52615;DHT22;38508;53.158;6.614;2023-01-23T07:00:01;5.30;99.90
52615;DHT22;38508;53.158;6.614;2023-01-23T07:02:27;5.30;99.90
52615;DHT22;38508;53.158;6.614;2023-01-23T07:04:53;5.20;99.90
52615;DHT22;38508;53.158;6.614;2023-01-23T07:07:19;5.20;99.90
52615;DHT22;38508;53.158;6.614;2023-01-23T07:09:45;5.30;99.90
52615;DHT22;38508;53.158;6.614;2023-01-23T07:12:11;5.20;99.90
52615;DHT22;38508;53.158;6.614;2023-01-23T07:14:36;5.30;99.90
52615;DHT22;38508;53.158;6.614;2023-01-23T07:17:02;5.20;99.90
52615;DHT22;38508;53.158;6.614;2023-01-23T07:19:28;5.30;99.90
52615;DHT22;38508;53.158;6.614;2023-01-23T07:21:53;5.30;99.90
52615;DHT22;38508;53.158;6.614;2023-01-23T07:24:19;5.30;99.90
52615;DHT22;38508;53.158;6.614;2023-01-23T07:26:45;5.30;99.90
52615;DHT22;38508;53.158;6.614;2023-01-23T07:29:11;5.20;99.90
52615;DHT22;38508;53.158;6.614;2023-01-23T07:31:37;5.30;99.90
52615;DHT22;38508;53.158;6.614;2023-01-23T07:34:02;5.40;99.90
52615;DHT22;38508;53.158;6.614;2023-01-23T07:36:28;5.50;99.90
52615;DHT22;38508;53.158;6.614;2023-01-23T07:38:55;5.50;99.90
52615;DHT22;38508;53.158;6.614;2023-01-23T07:41:21;5.50;99.90
52615;DHT22;38508;53.158;6.614;2023-01-23T07:43:46;5.40;99.90
52615;DHT22;38508;53.158;6.614;2023-01-23T07:46:12;5.40;99.90
52615;DHT22;38508;53.158;6.614;2023-01-23T07:48:38;5.40;99.90
52615;DHT22;38508;53.158;6.614;2023-01-23T07:51:04;5.40;99.90
52615;DHT22;38508;53.158;6.614;2023-01-23T07:53:32;5.40;99.90
52615;DHT22;38508;53.158;6.614;2023-01-23T07:55:58;5.30;99.90
52615;DHT22;38508;53.158;6.614;2023-01-23T07:58:24;5.30;99.90
52615;DHT22;38508;53.158;6.614;2023-01-23T08:00:49;5.20;99.90
52615;DHT22;38508;53.158;6.614;2023-01-23T08:03:15;5.30;99.90
52615;DHT22;38508;53.158;6.614;2023-01-23T08:05:41;5.30;99.90
52615;DHT22;38508;53.158;6.614;2023-01-23T08:08:06;5.30;99.90
52615;DHT22;38508;53.158;6.614;2023-01-23T08:10:33;5.20;99.90
52615;DHT22;38508;53.158;6.614;2023-01-23T08:12:59;5.10;99.90
52615;DHT22;38508;53.158;6.614;2023-01-23T08:15:25;5.20;99.90
52615;DHT22;38508;53.158;6.614;2023-01-23T08:17:50;5.10;99.90
52615;DHT22;38508;53.158;6.614;2023-01-23T08:20:17;5.20;99.90
52615;DHT22;38508;53.158;6.614;2023-01-23T08:22:43;5.10;99.90
52615;DHT22;38508;53.158;6.614;2023-01-23T08:25:10;5.00;99.90
52615;DHT22;38508;53.158;6.614;2023-01-23T08:27:36;4.80;99.90
52615;DHT22;38508;53.158;6.614;2023-01-23T08:30:02;4.80;99.90
52615;DHT22;38508;53.158;6.614;2023-01-23T08:32:28;4.90;99.90
52615;DHT22;38508;53.158;6.614;2023-01-23T08:34:54;5.00;99.90
52615;DHT22;38508;53.158;6.614;2023-01-23T08:37:19;5.00;99.90
52615;DHT22;38508;53.158;6.614;2023-01-23T08:39:45;5.00;99.90
52615;DHT22;38508;53.158;6.614;2023-01-23T08:42:11;5.10;99.90
52615;DHT22;38508;53.158;6.614;2023-01-23T08:44:36;5.10;99.90
52615;DHT22;38508;53.158;6.614;2023-01-23T08:47:02;5.20;99.90
52615;DHT22;38508;53.158;6.614;2023-01-23T08:49:28;5.30;99.90
52615;DHT22;38508;53.158;6.614;2023-01-23T08:51:54;5.40;99.90
52615;DHT22;38508;53.158;6.614;2023-01-23T08:54:21;5.40;99.90
52615;DHT22;38508;53.158;6.614;2023-01-23T08:56:46;5.50;99.90
52615;DHT22;38508;53.158;6.614;2023-01-23T08:59:12;5.40;99.90
52615;DHT22;38508;53.158;6.614;2023-01-23T09:01:38;5.60;99.90
52615;DHT22;38508;53.158;6.614;2023-01-23T09:04:03;5.60;99.90
52615;DHT22;38508;53.158;6.614;2023-01-23T09:06:29;5.70;99.90
52615;DHT22;38508;53.158;6.614;2023-01-23T09:08:55;5.70;99.90
52615;DHT22;38508;53.158;6.614;2023-01-23T09:11:21;5.60;99.90
52615;DHT22;38508;53.158;6.614;2023-01-23T09:13:48;5.60;99.90
52615;DHT22;38508;53.158;6.614;2023-01-23T09:16:14;5.60;99.90
52615;DHT22;38508;53.158;6.614;2023-01-23T09:18:40;5.80;99.90
52615;DHT22;38508;53.158;6.614;2023-01-23T09:21:12;5.80;99.90
52615;DHT22;38508;53.158;6.614;2023-01-23T09:23:38;5.80;99.90
52615;DHT22;38508;53.158;6.614;2023-01-23T09:26:11;5.80;99.90
52615;DHT22;38508;53.158;6.614;2023-01-23T09:28:39;5.80;99.90
52615;DHT22;38508;53.158;6.614;2023-01-23T09:31:08;5.80;99.90
52615;DHT22;38508;53.158;6.614;2023-01-23T09:33:34;5.90;99.90
52615;DHT22;38508;53.158;6.614;2023-01-23T09:36:00;5.90;99.90
52615;DHT22;38508;53.158;6.614;2023-01-23T09:38:26;5.90;99.90
52615;DHT22;38508;53.158;6.614;2023-01-23T09:40:59;5.90;99.90
52615;DHT22;38508;53.158;6.614;2023-01-23T09:43:52;5.90;99.90
52615;DHT22;38508;53.158;6.614;2023-01-23T09:49:27;6.10;99.90
52615;DHT22;38508;53.158;6.614;2023-01-23T09:51:57;6.10;99.90
52615;DHT22;38508;53.158;6.614;2023-01-23T09:54:43;6.10;99.90
52615;DHT22;38508;53.158;6.614;2023-01-23T09:57:34;6.10;99.90
52615;DHT22;38508;53.158;6.614;2023-01-23T10:02:36;6.00;99.90
52615;DHT22;38508;53.158;6.614;2023-01-23T10:05:01;6.10;99.90
52615;DHT22;38508;53.158;6.614;2023-01-23T10:10:33;6.00;99.90
52615;DHT22;38508;53.158;6.614;2023-01-23T10:13:17;6.00;99.90
52615;DHT22;38508;53.158;6.614;2023-01-23T10:18:52;6.10;99.90
52615;DHT22;38508;53.158;6.614;2023-01-23T10:21:41;6.20;99.90
52615;DHT22;38508;53.158;6.614;2023-01-23T10:27:21;6.30;99.90
52615;DHT22;38508;53.158;6.614;2023-01-23T10:30:12;6.20;99.90
52615;DHT22;38508;53.158;6.614;2023-01-23T10:33:00;6.10;99.90
52615;DHT22;38508;53.158;6.614;2023-01-23T10:39:10;6.30;99.90
52615;DHT22;38508;53.158;6.614;2023-01-23T10:41:16;6.20;99.90
52615;DHT22;38508;53.158;6.614;2023-01-23T10:43:54;6.20;99.90
52615;DHT22;38508;53.158;6.614;2023-01-23T10:46:33;6.30;99.90
52615;DHT22;38508;53.158;6.614;2023-01-23T10:49:03;6.30;99.90
52615;DHT22;38508;53.158;6.614;2023-01-23T10:51:47;6.30;99.90
52615;DHT22;38508;53.158;6.614;2023-01-23T10:54:24;6.30;99.90
52615;DHT22;38508;53.158;6.614;2023-01-23T10:57:01;6.20;99.90
52615;DHT22;38508;53.158;6.614;2023-01-23T10:59:31;6.10;99.90
52615;DHT22;38508;53.158;6.614;2023-01-23T11:04:30;6.00;99.90
52615;DHT22;38508;53.158;6.614;2023-01-23T11:07:16;6.00;99.90
52615;DHT22;38508;53.158;6.614;2023-01-23T11:09:49;6.00;99.90
52615;DHT22;38508;53.158;6.614;2023-01-23T11:14:45;6.00;99.90
52615;DHT22;38508;53.158;6.614;2023-01-23T11:17:24;6.10;99.90
52615;DHT22;38508;53.158;6.614;2023-01-23T11:19:56;6.20;99.90
52615;DHT22;38508;53.158;6.614;2023-01-23T11:22:30;6.20;99.90
52615;DHT22;38508;53.158;6.614;2023-01-23T11:24:57;6.30;99.90
52615;DHT22;38508;53.158;6.614;2023-01-23T11:27:26;6.20;99.90
52615;DHT22;38508;53.158;6.614;2023-01-23T11:31:04;6.30;99.90
52615;DHT22;38508;53.158;6.614;2023-01-23T11:33:17;6.30;99.90
52615;DHT22;38508;53.158;6.614;2023-01-23T11:38:26;6.50;99.90
52615;DHT22;38508;53.158;6.614;2023-01-23T11:40:53;6.30;99.90
52615;DHT22;38508;53.158;6.614;2023-01-23T11:43:19;6.40;99.90
52615;DHT22;38508;53.158;6.614;2023-01-23T11:48:44;6.50;99.90
52615;DHT22;38508;53.158;6.614;2023-01-23T11:53:57;6.50;99.90
52615;DHT22;38508;53.158;6.614;2023-01-23T12:16:38;6.50;99.90
52615;DHT22;38508;53.158;6.614;2023-01-23T12:22:07;6.60;99.90
52615;DHT22;38508;53.158;6.614;2023-01-23T12:24:58;6.50;99.90
52615;DHT22;38508;53.158;6.614;2023-01-23T12:27:43;6.60;99.90
52615;DHT22;38508;53.158;6.614;2023-01-23T12:30:35;6.60;99.90
52615;DHT22;38508;53.158;6.614;2023-01-23T12:41:34;6.40;99.90
52615;DHT22;38508;53.158;6.614;2023-01-23T12:44:13;6.30;99.90
52615;DHT22;38508;53.158;6.614;2023-01-23T12:49:28;6.40;99.90
52615;DHT22;38508;53.158;6.614;2023-01-23T12:57:37;6.50;99.90
52615;DHT22;38508;53.158;6.614;2023-01-23T13:02:56;6.50;99.90
52615;DHT22;38508;53.158;6.614;2023-01-23T13:05:33;6.70;99.90
52615;DHT22;38508;53.158;6.614;2023-01-23T13:11:06;6.70;99.90
52615;DHT22;38508;53.158;6.614;2023-01-23T13:13:52;6.60;99.90
52615;DHT22;38508;53.158;6.614;2023-01-23T13:16:19;6.60;99.90
52615;DHT22;38508;53.158;6.614;2023-01-23T13:18:57;6.70;99.90
52615;DHT22;38508;53.158;6.614;2023-01-23T13:22:04;6.60;99.90
52615;DHT22;38508;53.158;6.614;2023-01-23T13:49:06;6.60;99.90
52615;DHT22;38508;53.158;6.614;2023-01-23T13:51:59;6.50;99.90
52615;DHT22;38508;53.158;6.614;2023-01-23T13:54:30;6.50;99.90
52615;DHT22;38508;53.158;6.614;2023-01-23T13:57:16;6.40;99.90
52615;DHT22;38508;53.158;6.614;2023-01-23T13:59:44;6.20;99.90
52615;DHT22;38508;53.158;6.614;2023-01-23T14:02:34;6.20;99.90
52615;DHT22;38508;53.158;6.614;2023-01-23T14:05:24;6.10;99.90
52615;DHT22;38508;53.158;6.614;2023-01-23T14:08:02;6.10;99.90
52615;DHT22;38508;53.158;6.614;2023-01-23T14:10:34;6.20;99.90
52615;DHT22;38508;53.158;6.614;2023-01-23T14:13:06;6.20;99.90
52615;DHT22;38508;53.158;6.614;2023-01-23T14:15:33;6.20;99.90
52615;DHT22;38508;53.158;6.614;2023-01-23T14:21:25;6.10;99.90
52615;DHT22;38508;53.158;6.614;2023-01-23T14:23:54;6.20;99.90
52615;DHT22;38508;53.158;6.614;2023-01-23T14:26:29;6.30;99.90
52615;DHT22;38508;53.158;6.614;2023-01-23T14:29:00;6.40;99.90
52615;DHT22;38508;53.158;6.614;2023-01-23T14:31:31;6.40;99.90
52615;DHT22;38508;53.158;6.614;2023-01-23T14:34:03;6.50;99.90
52615;DHT22;38508;53.158;6.614;2023-01-23T14:36:32;6.60;99.90
52615;DHT22;38508;53.158;6.614;2023-01-23T14:38:59;6.50;99.90
52615;DHT22;38508;53.158;6.614;2023-01-23T14:41:29;6.60;99.90
52615;DHT22;38508;53.158;6.614;2023-01-23T14:43:57;6.70;99.90
52615;DHT22;38508;53.158;6.614;2023-01-23T14:46:38;6.80;99.90
52615;DHT22;38508;53.158;6.614;2023-01-23T14:49:06;6.70;99.90
52615;DHT22;38508;53.158;6.614;2023-01-23T14:51:33;6.70;99.90
52615;DHT22;38508;53.158;6.614;2023-01-23T14:54:05;6.70;99.90
52615;DHT22;38508;53.158;6.614;2023-01-23T14:56:36;6.70;99.90
52615;DHT22;38508;53.158;6.614;2023-01-23T14:59:06;6.70;99.90
52615;DHT22;38508;53.158;6.614;2023-01-23T15:01:33;6.60;99.90
52615;DHT22;38508;53.158;6.614;2023-01-23T15:04:01;6.50;99.90
52615;DHT22;38508;53.158;6.614;2023-01-23T15:06:29;6.50;99.90
52615;DHT22;38508;53.158;6.614;2023-01-23T15:09:05;6.60;99.90
52615;DHT22;38508;53.158;6.614;2023-01-23T15:11:31;6.60;99.90
52615;DHT22;38508;53.158;6.614;2023-01-23T15:13:58;6.60;99.90
52615;DHT22;38508;53.158;6.614;2023-01-23T15:16:34;6.40;99.90
52615;DHT22;38508;53.158;6.614;2023-01-23T15:19:22;6.40;99.90
52615;DHT22;38508;53.158;6.614;2023-01-23T15:21:49;6.50;99.90
52615;DHT22;38508;53.158;6.614;2023-01-23T15:26:42;6.40;99.90
52615;DHT22;38508;53.158;6.614;2023-01-23T15:36:59;6.40;99.90
52615;DHT22;38508;53.158;6.614;2023-01-23T15:41:56;6.50;99.90
52615;DHT22;38508;53.158;6.614;2023-01-23T15:44:25;6.50;99.90
52615;DHT22;38508;53.158;6.614;2023-01-23T15:46:52;6.50;99.90
52615;DHT22;38508;53.158;6.614;2023-01-23T15:49:18;6.50;99.90
52615;DHT22;38508;53.158;6.614;2023-01-23T15:51:43;6.40;99.90
52615;DHT22;38508;53.158;6.614;2023-01-23T15:54:21;6.40;99.90
52615;DHT22;38508;53.158;6.614;2023-01-23T15:56:48;6.40;99.90
52615;DHT22;38508;53.158;6.614;2023-01-23T15:59:16;6.40;99.90
52615;DHT22;38508;53.158;6.614;2023-01-23T16:01:42;6.50;99.90
52615;DHT22;38508;53.158;6.614;2023-01-23T16:04:08;6.40;99.90
52615;DHT22;38508;53.158;6.614;2023-01-23T16:06:34;6.40;99.90
52615;DHT22;38508;53.158;6.614;2023-01-23T16:09:02;6.40;99.90
52615;DHT22;38508;53.158;6.614;2023-01-23T16:11:31;6.40;99.90
52615;DHT22;38508;53.158;6.614;2023-01-23T16:13:57;6.40;99.90
52615;DHT22;38508;53.158;6.614;2023-01-23T16:16:23;6.40;99.90
52615;DHT22;38508;53.158;6.614;2023-01-23T16:18:48;6.50;99.90
52615;DHT22;38508;53.158;6.614;2023-01-23T16:21:18;6.50;99.90
52615;DHT22;38508;53.158;6.614;2023-01-23T16:23:45;6.50;99.90
52615;DHT22;38508;53.158;6.614;2023-01-23T16:26:22;6.50;99.90
52615;DHT22;38508;53.158;6.614;2023-01-23T16:28:48;6.40;99.90
52615;DHT22;38508;53.158;6.614;2023-01-23T16:31:16;6.40;99.90
52615;DHT22;38508;53.158;6.614;2023-01-23T16:33:42;6.40;99.90
52615;DHT22;38508;53.158;6.614;2023-01-23T16:36:16;6.30;99.90
52615;DHT22;38508;53.158;6.614;2023-01-23T16:38:49;6.30;99.90
52615;DHT22;38508;53.158;6.614;2023-01-23T16:41:16;6.30;99.90
52615;DHT22;38508;53.158;6.614;2023-01-23T16:43:42;6.30;99.90
52615;DHT22;38508;53.158;6.614;2023-01-23T16:46:09;6.30;99.90
52615;DHT22;38508;53.158;6.614;2023-01-23T16:48:35;6.30;99.90
52615;DHT22;38508;53.158;6.614;2023-01-23T16:51:04;6.30;99.90
52615;DHT22;38508;53.158;6.614;2023-01-23T16:53:35;6.30;99.90
52615;DHT22;38508;53.158;6.614;2023-01-23T16:56:03;6.30;99.90
52615;DHT22;38508;53.158;6.614;2023-01-23T16:58:37;6.20;99.90
52615;DHT22;38508;53.158;6.614;2023-01-23T17:01:09;6.20;99.90
52615;DHT22;38508;53.158;6.614;2023-01-23T17:03:38;6.20;99.90
52615;DHT22;38508;53.158;6.614;2023-01-23T17:06:14;6.20;99.90
52615;DHT22;38508;53.158;6.614;2023-01-23T17:08:40;6.30;99.90
52615;DHT22;38508;53.158;6.614;2023-01-23T17:11:06;6.30;99.90
52615;DHT22;38508;53.158;6.614;2023-01-23T17:13:33;6.30;99.90
52615;DHT22;38508;53.158;6.614;2023-01-23T17:16:01;6.30;99.90
52615;DHT22;38508;53.158;6.614;2023-01-23T17:18:30;6.20;99.90
52615;DHT22;38508;53.158;6.614;2023-01-23T17:20:56;6.30;99.90
52615;DHT22;38508;53.158;6.614;2023-01-23T17:23:23;6.30;99.90
52615;DHT22;38508;53.158;6.614;2023-01-23T17:25:50;6.20;99.90
52615;DHT22;38508;53.158;6.614;2023-01-23T17:28:17;6.20;99.90
52615;DHT22;38508;53.158;6.614;2023-01-23T17:30:45;6.20;99.90
52615;DHT22;38508;53.158;6.614;2023-01-23T17:33:20;6.30;99.90
52615;DHT22;38508;53.158;6.614;2023-01-23T17:35:47;6.30;99.90
52615;DHT22;38508;53.158;6.614;2023-01-23T17:38:25;6.40;99.90
52615;DHT22;38508;53.158;6.614;2023-01-23T17:40:51;6.40;99.90
52615;DHT22;38508;53.158;6.614;2023-01-23T17:43:18;6.40;99.90
52615;DHT22;38508;53.158;6.614;2023-01-23T17:45:46;6.40;99.90
52615;DHT22;38508;53.158;6.614;2023-01-23T17:48:16;6.30;99.90
52615;DHT22;38508;53.158;6.614;2023-01-23T17:50:44;6.30;99.90
52615;DHT22;38508;53.158;6.614;2023-01-23T17:53:14;6.30;99.90
52615;DHT22;38508;53.158;6.614;2023-01-23T17:55:41;6.30;99.90
52615;DHT22;38508;53.158;6.614;2023-01-23T17:58:12;6.30;99.90
52615;DHT22;38508;53.158;6.614;2023-01-23T18:00:38;6.30;99.90
52615;DHT22;38508;53.158;6.614;2023-01-23T18:03:06;6.40;99.90